createdAt,value
2018-07-30T01:00:26.614Z,0.00
2018-07-30T01:01:26.551Z,0.00
2018-07-30T01:02:26.540Z,0.00
2018-07-30T01:03:26.536Z,0.00
2018-07-30T01:04:26.519Z,0.00
2018-07-30T01:05:26.554Z,0.00
2018-07-30T01:06:26.497Z,0.00
2018-07-30T01:07:26.488Z,0.00
2018-07-30T01:08:26.472Z,0.00
2018-07-30T01:09:26.462Z,0.00
2018-07-30T01:10:26.499Z,0.00
2018-07-30T01:11:26.438Z,0.00
2018-07-30T01:12:26.427Z,0.00
2018-07-30T01:13:26.418Z,0.00
2018-07-30T01:14:26.508Z,0.00
2018-07-30T01:15:26.452Z,0.00
2018-07-30T01:16:26.397Z,0.00
2018-07-30T01:17:26.370Z,0.00
2018-07-30T01:18:26.362Z,0.00
2018-07-30T01:19:26.349Z,0.00
2018-07-30T01:20:26.404Z,0.00
2018-07-30T01:21:26.347Z,0.00
2018-07-30T01:22:26.314Z,0.00
2018-07-30T01:23:26.307Z,0.00
2018-07-30T01:24:26.297Z,0.00
2018-07-30T01:25:26.341Z,0.00
2018-07-30T01:26:26.271Z,0.00
2018-07-30T01:27:26.262Z,0.00
2018-07-30T01:28:26.266Z,0.00
2018-07-30T01:29:26.253Z,0.00
2018-07-30T01:30:26.226Z,0.00
2018-07-30T01:31:26.264Z,0.00
2018-07-30T01:32:26.202Z,0.00
2018-07-30T01:33:26.193Z,0.00
2018-07-30T01:34:26.183Z,0.00
2018-07-30T01:35:26.171Z,0.00
2018-07-30T01:36:26.207Z,0.00
2018-07-30T01:37:26.154Z,0.00
2018-07-30T01:38:26.137Z,0.00
2018-07-30T01:39:26.129Z,0.00
2018-07-30T01:40:26.113Z,0.00
2018-07-30T01:41:26.151Z,0.00
2018-07-30T01:42:26.100Z,0.00
2018-07-30T01:43:26.083Z,0.00
2018-07-30T01:44:26.080Z,0.00
2018-07-30T01:45:26.060Z,0.00
2018-07-30T01:46:26.092Z,0.00
2018-07-30T01:47:26.041Z,0.00
2018-07-30T01:48:26.039Z,0.00
2018-07-30T01:49:26.015Z,0.00
2018-07-30T01:50:26.004Z,0.00
2018-07-30T01:51:26.042Z,0.00
2018-07-30T01:52:25.983Z,0.00
2018-07-30T01:53:25.971Z,0.00
2018-07-30T01:54:25.964Z,0.00
2018-07-30T01:55:26.001Z,0.00
2018-07-30T01:56:25.995Z,0.00
2018-07-30T01:57:25.925Z,0.00
2018-07-30T01:58:25.921Z,0.00
2018-07-30T01:59:25.907Z,0.00
2018-07-30T02:00:25.892Z,0.00
2018-07-30T02:01:25.931Z,0.00
2018-07-30T02:02:25.870Z,0.00
2018-07-30T02:03:25.866Z,0.00
2018-07-30T02:04:25.855Z,0.00
2018-07-30T02:05:25.841Z,0.00
2018-07-30T02:06:25.828Z,0.00
2018-07-30T02:07:25.874Z,0.00
2018-07-30T02:08:25.808Z,0.00
2018-07-30T02:09:25.794Z,0.00
2018-07-30T02:10:25.784Z,0.00
2018-07-30T02:11:25.775Z,0.00
2018-07-30T02:12:25.815Z,0.00
2018-07-30T02:13:25.753Z,0.00
2018-07-30T02:14:25.749Z,0.00
2018-07-30T02:15:25.778Z,0.00
2018-07-30T02:16:25.716Z,0.00
2018-07-30T02:17:25.751Z,0.00
2018-07-30T02:18:25.693Z,0.00
2018-07-30T02:19:25.692Z,0.00
2018-07-30T02:20:25.672Z,0.00
2018-07-30T02:21:25.664Z,0.00
2018-07-30T02:22:25.694Z,0.00
2018-07-30T02:23:25.640Z,0.00
2018-07-30T02:24:25.630Z,0.00
2018-07-30T02:25:25.615Z,0.00
2018-07-30T02:26:25.608Z,0.00
2018-07-30T02:27:25.638Z,0.00
2018-07-30T02:28:25.588Z,0.00
2018-07-30T02:29:25.577Z,0.00
2018-07-30T02:30:25.563Z,0.00
2018-07-30T02:31:25.546Z,0.00
2018-07-30T02:32:25.594Z,0.00
2018-07-30T02:33:25.526Z,0.00
2018-07-30T02:34:25.519Z,0.00
2018-07-30T02:35:25.504Z,0.00
2018-07-30T02:36:25.502Z,0.00
2018-07-30T02:37:25.535Z,0.00
2018-07-30T02:38:25.469Z,0.00
2018-07-30T02:39:25.461Z,0.00
2018-07-30T02:40:25.453Z,0.00
2018-07-30T02:41:25.440Z,0.00
2018-07-30T02:42:25.471Z,0.00
2018-07-30T02:43:25.431Z,0.00
2018-07-30T02:44:25.406Z,0.00
2018-07-30T02:45:25.394Z,0.00
2018-07-30T02:46:25.385Z,0.00
2018-07-30T02:47:25.415Z,0.00
2018-07-30T02:48:25.358Z,0.00
2018-07-30T02:49:25.351Z,0.00
2018-07-30T02:50:25.337Z,0.00
2018-07-30T02:51:25.327Z,0.00
2018-07-30T02:52:25.359Z,0.00
2018-07-30T02:53:25.306Z,0.00
2018-07-30T02:54:25.312Z,0.00
2018-07-30T02:55:25.278Z,0.00
2018-07-30T02:56:25.270Z,0.00
2018-07-30T02:57:25.316Z,0.00
2018-07-30T02:58:25.247Z,0.00
2018-07-30T02:59:25.241Z,0.00
2018-07-30T03:00:25.224Z,0.00
2018-07-30T03:01:25.213Z,0.00
2018-07-30T03:02:25.256Z,0.00
2018-07-30T03:03:25.191Z,0.00
2018-07-30T03:04:25.183Z,0.00
2018-07-30T03:05:25.171Z,0.00
2018-07-30T03:06:25.161Z,0.00
2018-07-30T03:07:25.152Z,0.00
2018-07-30T03:08:25.184Z,0.00
2018-07-30T03:09:25.167Z,0.00
2018-07-30T03:10:25.117Z,0.00
2018-07-30T03:11:25.113Z,0.00
2018-07-30T03:12:25.093Z,0.00
2018-07-30T03:13:25.137Z,0.00
2018-07-30T03:14:25.086Z,0.00
2018-07-30T03:15:25.060Z,0.00
2018-07-30T03:16:25.048Z,0.00
2018-07-30T03:17:25.034Z,0.00
2018-07-30T03:18:25.068Z,0.00
2018-07-30T03:19:25.010Z,0.00
2018-07-30T03:20:25.007Z,0.00
2018-07-30T03:21:24.992Z,0.00
2018-07-30T03:22:24.982Z,0.00
2018-07-30T03:23:25.028Z,0.00
2018-07-30T03:24:24.955Z,0.00
2018-07-30T03:25:24.946Z,0.00
2018-07-30T03:26:24.942Z,0.00
2018-07-30T03:27:24.922Z,4.00
2018-07-30T03:28:24.975Z,4.00
2018-07-30T03:29:24.929Z,0.00
2018-07-30T03:30:24.894Z,0.00
2018-07-30T03:31:24.882Z,4.00
2018-07-30T03:32:24.878Z,4.00
2018-07-30T03:33:24.855Z,4.00
2018-07-30T03:34:24.897Z,4.00
2018-07-30T03:35:24.835Z,4.00
2018-07-30T03:36:24.825Z,8.00
2018-07-30T03:37:24.815Z,4.00
2018-07-30T03:38:24.799Z,4.00
2018-07-30T03:39:24.838Z,8.00
2018-07-30T03:40:24.781Z,12.00
2018-07-30T03:41:24.777Z,12.00
2018-07-30T03:42:24.905Z,12.00
2018-07-30T03:43:24.747Z,16.00
2018-07-30T03:44:24.779Z,16.00
2018-07-30T03:45:24.737Z,16.00
2018-07-30T03:46:24.712Z,20.00
2018-07-30T03:47:24.700Z,24.00
2018-07-30T03:48:24.692Z,24.00
2018-07-30T03:49:24.733Z,28.00
2018-07-30T03:50:24.673Z,32.00
2018-07-30T03:51:24.654Z,32.00
2018-07-30T03:52:24.643Z,36.00
2018-07-30T03:53:24.636Z,44.00
2018-07-30T03:54:24.666Z,44.00
2018-07-30T03:55:24.610Z,48.00
2018-07-30T03:56:24.602Z,52.00
2018-07-30T03:57:24.587Z,56.00
2018-07-30T03:58:24.576Z,60.00
2018-07-30T03:59:24.613Z,64.00
2018-07-30T04:00:24.619Z,68.00
2018-07-30T04:01:24.544Z,76.00
2018-07-30T04:02:24.531Z,76.00
2018-07-30T04:03:24.521Z,80.00
2018-07-30T04:04:24.580Z,88.00
2018-07-30T04:05:24.501Z,92.00
2018-07-30T04:06:24.498Z,100.00
2018-07-30T04:07:24.480Z,104.00
2018-07-30T04:08:24.464Z,108.00
2018-07-30T04:09:24.508Z,112.00
2018-07-30T04:10:24.443Z,124.00
2018-07-30T04:11:24.431Z,128.00
2018-07-30T04:12:24.420Z,136.00
2018-07-30T04:13:24.415Z,144.00
2018-07-30T04:14:24.444Z,148.00
2018-07-30T04:15:24.406Z,152.00
2018-07-30T04:16:24.373Z,160.00
2018-07-30T04:17:24.363Z,172.00
2018-07-30T04:18:24.355Z,176.00
2018-07-30T04:19:24.386Z,184.00
2018-07-30T04:20:24.330Z,192.00
2018-07-30T04:21:24.317Z,200.00
2018-07-30T04:22:24.306Z,204.00
2018-07-30T04:23:24.294Z,212.00
2018-07-30T04:24:24.334Z,228.00
2018-07-30T04:25:24.272Z,240.00
2018-07-30T04:26:24.262Z,256.00
2018-07-30T04:27:24.254Z,264.00
2018-07-30T04:28:24.239Z,268.00
2018-07-30T04:29:24.228Z,276.00
2018-07-30T04:30:24.740Z,292.00
2018-07-30T04:31:24.209Z,296.00
2018-07-30T04:32:24.193Z,300.00
2018-07-30T04:33:24.181Z,304.00
2018-07-30T04:34:24.176Z,316.00
2018-07-30T04:35:24.210Z,324.00
2018-07-30T04:36:24.182Z,332.00
2018-07-30T04:37:24.144Z,336.00
2018-07-30T04:38:24.130Z,340.00
2018-07-30T04:39:24.115Z,352.00
2018-07-30T04:40:24.161Z,364.00
2018-07-30T04:41:24.092Z,364.00
2018-07-30T04:42:24.081Z,368.00
2018-07-30T04:43:24.081Z,376.00
2018-07-30T04:44:24.058Z,384.00
2018-07-30T04:45:24.097Z,392.00
2018-07-30T04:46:24.038Z,404.00
2018-07-30T04:47:24.023Z,408.00
2018-07-30T04:48:24.018Z,420.00
2018-07-30T04:49:24.017Z,432.00
2018-07-30T04:50:24.104Z,436.00
2018-07-30T04:51:23.991Z,448.00
2018-07-30T04:52:23.989Z,460.00
2018-07-30T04:53:23.964Z,468.00
2018-07-30T04:54:23.987Z,488.00
2018-07-30T04:55:23.981Z,504.00
2018-07-30T04:56:23.921Z,512.00
2018-07-30T04:57:23.932Z,520.00
2018-07-30T04:58:23.913Z,520.00
2018-07-30T04:59:23.941Z,520.00
2018-07-30T05:00:23.922Z,516.00
2018-07-30T05:01:23.865Z,512.00
2018-07-30T05:02:23.877Z,508.00
2018-07-30T05:03:23.846Z,512.00
2018-07-30T05:04:23.844Z,512.00
2018-07-30T05:05:23.882Z,512.00
2018-07-30T05:06:23.807Z,516.00
2018-07-30T05:07:23.795Z,512.00
2018-07-30T05:08:23.786Z,516.00
2018-07-30T05:09:23.785Z,512.00
2018-07-30T05:10:23.809Z,516.00
2018-07-30T05:11:23.784Z,532.00
2018-07-30T05:12:23.746Z,544.00
2018-07-30T05:13:23.731Z,564.00
2018-07-30T05:14:23.719Z,576.00
2018-07-30T05:15:23.759Z,588.00
2018-07-30T05:16:23.702Z,600.00
2018-07-30T05:17:23.685Z,608.00
2018-07-30T05:18:23.684Z,612.00
2018-07-30T05:19:23.762Z,616.00
2018-07-30T05:20:23.708Z,656.00
2018-07-30T05:21:23.642Z,840.00
2018-07-30T05:22:23.629Z,1224.00
2018-07-30T05:23:23.628Z,1336.00
2018-07-30T05:24:23.610Z,1092.00
2018-07-30T05:25:23.646Z,828.00
2018-07-30T05:26:23.632Z,788.00
2018-07-30T05:27:23.597Z,860.00
2018-07-30T05:28:23.564Z,944.00
2018-07-30T05:29:23.551Z,888.00
2018-07-30T05:30:23.541Z,820.00
2018-07-30T05:31:23.585Z,772.00
2018-07-30T05:32:23.525Z,816.00
2018-07-30T05:33:23.507Z,864.00
2018-07-30T05:34:23.505Z,848.00
2018-07-30T05:35:23.484Z,832.00
2018-07-30T05:36:23.529Z,772.00
2018-07-30T05:37:23.547Z,692.00
2018-07-30T05:38:23.454Z,644.00
2018-07-30T05:39:23.452Z,680.00
2018-07-30T05:40:23.430Z,636.00
2018-07-30T05:41:23.503Z,648.00
2018-07-30T05:42:23.414Z,604.00
2018-07-30T05:43:23.414Z,668.00
2018-07-30T05:44:23.389Z,580.00
2018-07-30T05:45:23.372Z,604.00
2018-07-30T05:46:23.442Z,600.00
2018-07-30T05:47:23.354Z,516.00
2018-07-30T05:48:23.353Z,492.00
2018-07-30T05:49:23.332Z,484.00
2018-07-30T05:50:23.326Z,492.00
2018-07-30T05:51:23.381Z,504.00
2018-07-30T05:52:23.293Z,512.00
2018-07-30T05:53:23.292Z,520.00
2018-07-30T05:54:23.365Z,540.00
2018-07-30T05:55:23.261Z,572.00
2018-07-30T05:56:23.258Z,596.00
2018-07-30T05:57:23.285Z,684.00
2018-07-30T05:58:23.252Z,848.00
2018-07-30T05:59:23.249Z,900.00
2018-07-30T06:00:23.224Z,848.00
2018-07-30T06:01:23.198Z,844.00
2018-07-30T06:02:23.234Z,860.00
2018-07-30T06:03:23.172Z,892.00
2018-07-30T06:04:23.171Z,904.00
2018-07-30T06:05:23.166Z,916.00
2018-07-30T06:06:23.138Z,960.00
2018-07-30T06:07:23.182Z,952.00
2018-07-30T06:08:23.115Z,912.00
2018-07-30T06:09:23.109Z,896.00
2018-07-30T06:10:23.098Z,928.00
2018-07-30T06:11:23.105Z,1032.00
2018-07-30T06:12:23.118Z,1256.00
2018-07-30T06:13:23.063Z,1492.00
2018-07-30T06:14:23.049Z,1228.00
2018-07-30T06:15:23.054Z,976.00
2018-07-30T06:16:23.033Z,924.00
2018-07-30T06:17:23.063Z,884.00
2018-07-30T06:18:23.011Z,868.00
2018-07-30T06:19:22.994Z,892.00
2018-07-30T06:20:22.987Z,936.00
2018-07-30T06:21:22.997Z,948.00
2018-07-30T06:22:23.013Z,952.00
2018-07-30T06:23:22.948Z,952.00
2018-07-30T06:24:22.946Z,952.00
2018-07-30T06:25:22.928Z,960.00
2018-07-30T06:26:22.925Z,972.00
2018-07-30T06:27:22.919Z,992.00
2018-07-30T06:28:22.956Z,1012.00
2018-07-30T06:29:22.884Z,1068.00
2018-07-30T06:30:22.888Z,1072.00
2018-07-30T06:31:22.867Z,1100.00
2018-07-30T06:32:22.885Z,1168.00
2018-07-30T06:33:22.883Z,1280.00
2018-07-30T06:34:22.834Z,1460.00
2018-07-30T06:35:22.819Z,1684.00
2018-07-30T06:36:22.805Z,1608.00
2018-07-30T06:37:22.806Z,1408.00
2018-07-30T06:38:22.881Z,1360.00
2018-07-30T06:39:22.780Z,1312.00
2018-07-30T06:40:22.759Z,1244.00
2018-07-30T06:41:22.746Z,1284.00
2018-07-30T06:42:22.745Z,1616.00
2018-07-30T06:43:22.771Z,1932.00
2018-07-30T06:44:22.713Z,1608.00
2018-07-30T06:45:22.706Z,1520.00
2018-07-30T06:46:22.699Z,1432.00
2018-07-30T06:47:22.694Z,1296.00
2018-07-30T06:48:22.717Z,1248.00
2018-07-30T06:49:22.659Z,1388.00
2018-07-30T06:50:22.656Z,1468.00
2018-07-30T06:51:22.640Z,1308.00
2018-07-30T06:52:22.629Z,1428.00
2018-07-30T06:53:22.676Z,1380.00
2018-07-30T06:54:22.603Z,1292.00
2018-07-30T06:55:22.599Z,1252.00
2018-07-30T06:56:22.592Z,1536.00
2018-07-30T06:57:22.573Z,1912.00
2018-07-30T06:58:22.612Z,2228.00
2018-07-30T06:59:22.553Z,2036.00
2018-07-30T07:00:22.548Z,1928.00
2018-07-30T07:01:22.530Z,1380.00
2018-07-30T07:02:22.534Z,1296.00
2018-07-30T07:03:22.618Z,1284.00
2018-07-30T07:04:22.569Z,1272.00
2018-07-30T07:05:22.485Z,1324.00
2018-07-30T07:06:22.484Z,1436.00
2018-07-30T07:07:22.470Z,1348.00
2018-07-30T07:08:22.462Z,1276.00
2018-07-30T07:09:22.561Z,1256.00
2018-07-30T07:10:22.448Z,1232.00
2018-07-30T07:11:22.419Z,1264.00
2018-07-30T07:12:22.416Z,1256.00
2018-07-30T07:13:22.404Z,1260.00
2018-07-30T07:14:22.434Z,1348.00
2018-07-30T07:15:22.379Z,1460.00
2018-07-30T07:16:22.388Z,1384.00
2018-07-30T07:17:22.352Z,1636.00
2018-07-30T07:18:22.344Z,2244.00
2018-07-30T07:19:22.378Z,1900.00
2018-07-30T07:20:22.327Z,1420.00
2018-07-30T07:21:22.416Z,1328.00
2018-07-30T07:22:22.297Z,1352.00
2018-07-30T07:23:22.302Z,1360.00
2018-07-30T07:24:22.352Z,1352.00
2018-07-30T07:25:22.271Z,1404.00
2018-07-30T07:26:22.305Z,1340.00
2018-07-30T07:27:22.239Z,1276.00
2018-07-30T07:28:22.236Z,1296.00
2018-07-30T07:29:22.282Z,1288.00
2018-07-30T07:30:22.212Z,1308.00
2018-07-30T07:31:22.206Z,1292.00
2018-07-30T07:32:22.200Z,1296.00
2018-07-30T07:33:22.214Z,1280.00
2018-07-30T07:34:22.163Z,1288.00
2018-07-30T07:35:22.231Z,1296.00
2018-07-30T07:36:22.141Z,1304.00
2018-07-30T07:37:22.138Z,1340.00
2018-07-30T07:38:22.117Z,1340.00
2018-07-30T07:39:22.108Z,1484.00
2018-07-30T07:40:22.177Z,1392.00
2018-07-30T07:41:22.093Z,1452.00
2018-07-30T07:42:22.079Z,1472.00
2018-07-30T07:43:22.068Z,1472.00
2018-07-30T07:44:22.052Z,1408.00
2018-07-30T07:45:22.092Z,1568.00
2018-07-30T07:46:22.031Z,1500.00
2018-07-30T07:47:22.016Z,1472.00
2018-07-30T07:48:22.009Z,1536.00
2018-07-30T07:49:22.007Z,1624.00
2018-07-30T07:50:22.527Z,1724.00
2018-07-30T07:51:21.972Z,1592.00
2018-07-30T07:52:21.979Z,1548.00
2018-07-30T07:53:21.952Z,1592.00
2018-07-30T07:54:21.937Z,1512.00
2018-07-30T07:55:22.000Z,1512.00
2018-07-30T07:56:21.918Z,1752.00
2018-07-30T07:57:21.904Z,1500.00
2018-07-30T07:58:21.919Z,1516.00
2018-07-30T07:59:21.886Z,1572.00
2018-07-30T08:00:21.927Z,1636.00
2018-07-30T08:01:21.864Z,1636.00
2018-07-30T08:02:21.850Z,1688.00
2018-07-30T08:03:21.844Z,1540.00
2018-07-30T08:04:21.837Z,1576.00
2018-07-30T08:05:21.866Z,1760.00
2018-07-30T08:06:21.863Z,1688.00
2018-07-30T08:07:21.801Z,1524.00
2018-07-30T08:08:21.781Z,1504.00
2018-07-30T08:09:21.779Z,1508.00
2018-07-30T08:10:21.819Z,1536.00
2018-07-30T08:11:21.751Z,1576.00
2018-07-30T08:12:21.743Z,1604.00
2018-07-30T08:13:21.726Z,1608.00
2018-07-30T08:14:21.717Z,1760.00
2018-07-30T08:15:21.716Z,1796.00
2018-07-30T08:16:21.758Z,1860.00
2018-07-30T08:17:21.688Z,2252.00
2018-07-30T08:18:21.677Z,2404.00
2018-07-30T08:19:21.660Z,2644.00
2018-07-30T08:20:21.655Z,2436.00
2018-07-30T08:21:21.688Z,1832.00
2018-07-30T08:22:21.715Z,1752.00
2018-07-30T08:23:21.620Z,1696.00
2018-07-30T08:24:21.604Z,1752.00
2018-07-30T08:25:21.594Z,1788.00
2018-07-30T08:26:21.654Z,1872.00
2018-07-30T08:27:21.582Z,1728.00
2018-07-30T08:28:21.565Z,1736.00
2018-07-30T08:29:21.562Z,1692.00
2018-07-30T08:30:21.539Z,1716.00
2018-07-30T08:31:21.616Z,1732.00
2018-07-30T08:32:21.521Z,1724.00
2018-07-30T08:33:21.507Z,1716.00
2018-07-30T08:34:21.498Z,1748.00
2018-07-30T08:35:21.484Z,1764.00
2018-07-30T08:36:21.519Z,2024.00
2018-07-30T08:37:21.466Z,2680.00
2018-07-30T08:38:21.462Z,1776.00
2018-07-30T08:39:21.438Z,1760.00
2018-07-30T08:40:21.448Z,1760.00
2018-07-30T08:41:21.463Z,1788.00
2018-07-30T08:42:21.479Z,1788.00
2018-07-30T08:43:21.404Z,1796.00
2018-07-30T08:44:21.383Z,1812.00
2018-07-30T08:45:21.372Z,1820.00
2018-07-30T08:46:21.407Z,1828.00
2018-07-30T08:47:21.370Z,1872.00
2018-07-30T08:48:21.346Z,1832.00
2018-07-30T08:49:21.327Z,2152.00
2018-07-30T08:50:21.321Z,1884.00
2018-07-30T08:51:21.366Z,1908.00
2018-07-30T08:52:21.297Z,1852.00
2018-07-30T08:53:21.283Z,1884.00
2018-07-30T08:54:21.279Z,1988.00
2018-07-30T08:55:21.266Z,1896.00
2018-07-30T08:56:21.319Z,1908.00
2018-07-30T08:57:21.291Z,1908.00
2018-07-30T08:58:21.231Z,1908.00
2018-07-30T08:59:21.224Z,1904.00
2018-07-30T09:00:21.307Z,1948.00
2018-07-30T09:01:21.199Z,1996.00
2018-07-30T09:02:21.233Z,5316.00
2018-07-30T09:03:21.179Z,2916.00
2018-07-30T09:04:21.163Z,2448.00
2018-07-30T09:05:21.159Z,3128.00
2018-07-30T09:06:21.144Z,2360.00
2018-07-30T09:07:21.180Z,2004.00
2018-07-30T09:08:21.119Z,3208.00
2018-07-30T09:09:21.108Z,4632.00
2018-07-30T09:10:21.102Z,2360.00
2018-07-30T09:11:21.089Z,3884.00
2018-07-30T09:12:21.135Z,3216.00
2018-07-30T09:13:21.069Z,7980.00
2018-07-30T09:14:21.055Z,2684.00
2018-07-30T09:15:21.045Z,2624.00
2018-07-30T09:16:21.035Z,3656.00
2018-07-30T09:17:21.279Z,7748.00
2018-07-30T09:18:21.039Z,2336.00
2018-07-30T09:19:21.022Z,2928.00
2018-07-30T09:20:20.993Z,2284.00
2018-07-30T09:21:20.978Z,3724.00
2018-07-30T09:22:20.966Z,2848.00
2018-07-30T09:23:21.001Z,2256.00
2018-07-30T09:24:20.950Z,2116.00
2018-07-30T09:25:20.936Z,2184.00
2018-07-30T09:26:20.926Z,2192.00
2018-07-30T09:27:20.911Z,2144.00
2018-07-30T09:28:20.949Z,2132.00
2018-07-30T09:29:20.893Z,2256.00
2018-07-30T09:30:20.880Z,2372.00
2018-07-30T09:31:20.869Z,2212.00
2018-07-30T09:32:20.854Z,2188.00
2018-07-30T09:33:20.899Z,2448.00
2018-07-30T09:34:20.836Z,2296.00
2018-07-30T09:35:20.825Z,2332.00
2018-07-30T09:36:20.817Z,4984.00
2018-07-30T09:37:20.814Z,2688.00
2018-07-30T09:38:20.838Z,10400.00
2018-07-30T09:39:20.839Z,7828.00
2018-07-30T09:40:20.769Z,7648.00
2018-07-30T09:41:20.757Z,2324.00
2018-07-30T09:42:20.754Z,2512.00
2018-07-30T09:43:20.781Z,3352.00
2018-07-30T09:44:20.722Z,3672.00
2018-07-30T09:45:20.717Z,3532.00
2018-07-30T09:46:20.705Z,12344.00
2018-07-30T09:47:20.694Z,19520.00
2018-07-30T09:48:20.735Z,16096.00
2018-07-30T09:49:20.674Z,7096.00
2018-07-30T09:50:20.661Z,18976.00
2018-07-30T09:51:20.653Z,11580.00
2018-07-30T09:52:20.641Z,2732.00
2018-07-30T09:53:20.675Z,6016.00
2018-07-30T09:54:20.632Z,5632.00
2018-07-30T09:55:20.604Z,3412.00
2018-07-30T09:56:20.722Z,3156.00
2018-07-30T09:57:20.590Z,2716.00
2018-07-30T09:58:20.615Z,2908.00
2018-07-30T09:59:20.561Z,2812.00
2018-07-30T10:00:20.561Z,2600.00
2018-07-30T10:01:20.538Z,2644.00
2018-07-30T10:02:20.531Z,2472.00
2018-07-30T10:03:20.563Z,2640.00
2018-07-30T10:04:20.510Z,2472.00
2018-07-30T10:05:20.497Z,2204.00
2018-07-30T10:06:20.527Z,2296.00
2018-07-30T10:07:20.486Z,2592.00
2018-07-30T10:08:20.519Z,2188.00
2018-07-30T10:09:20.453Z,2332.00
2018-07-30T10:10:20.476Z,6060.00
2018-07-30T10:11:20.436Z,10004.00
2018-07-30T10:12:20.419Z,2164.00
2018-07-30T10:13:20.466Z,2184.00
2018-07-30T10:14:20.404Z,2228.00
2018-07-30T10:15:20.387Z,2300.00
2018-07-30T10:16:20.378Z,2360.00
2018-07-30T10:17:20.366Z,2384.00
2018-07-30T10:18:20.393Z,2300.00
2018-07-30T10:19:20.398Z,2256.00
2018-07-30T10:20:20.331Z,2408.00
2018-07-30T10:21:20.324Z,2492.00
2018-07-30T10:22:20.315Z,2396.00
2018-07-30T10:23:20.311Z,2724.00
2018-07-30T10:24:20.353Z,3196.00
2018-07-30T10:25:20.279Z,3532.00
2018-07-30T10:26:20.269Z,3272.00
2018-07-30T10:27:20.256Z,2716.00
2018-07-30T10:28:20.255Z,2844.00
2018-07-30T10:29:20.290Z,3620.00
2018-07-30T10:30:20.229Z,3464.00
2018-07-30T10:31:20.213Z,2368.00
2018-07-30T10:32:20.205Z,3972.00
2018-07-30T10:33:20.195Z,7748.00
2018-07-30T10:34:20.233Z,3012.00
2018-07-30T10:35:20.169Z,3000.00
2018-07-30T10:36:20.159Z,4624.00
2018-07-30T10:37:20.155Z,4252.00
2018-07-30T10:38:20.248Z,2504.00
2018-07-30T10:39:20.140Z,2240.00
2018-07-30T10:40:20.167Z,2240.00
2018-07-30T10:41:20.105Z,2640.00
2018-07-30T10:42:20.094Z,2300.00
2018-07-30T10:43:20.088Z,2244.00
2018-07-30T10:44:20.071Z,2348.00
2018-07-30T10:45:20.116Z,2320.00
2018-07-30T10:46:20.069Z,2356.00
2018-07-30T10:47:20.042Z,2956.00
2018-07-30T10:48:20.140Z,2916.00
2018-07-30T10:49:20.035Z,7284.00
2018-07-30T10:50:20.094Z,3548.00
2018-07-30T10:51:19.994Z,2468.00
2018-07-30T10:52:19.986Z,2464.00
2018-07-30T10:53:19.973Z,2508.00
2018-07-30T10:54:19.965Z,2452.00
2018-07-30T10:55:19.999Z,2984.00
2018-07-30T10:56:19.943Z,2656.00
2018-07-30T10:57:19.931Z,4660.00
2018-07-30T10:58:19.927Z,18816.00
2018-07-30T10:59:19.910Z,21600.00
2018-07-30T11:00:19.957Z,19392.00
2018-07-30T11:01:19.892Z,63168.00
2018-07-30T11:02:19.878Z,6848.00
2018-07-30T11:03:19.865Z,21280.00
2018-07-30T11:04:19.863Z,11484.00
2018-07-30T11:05:19.888Z,11416.00
2018-07-30T11:06:19.837Z,5848.00
2018-07-30T11:07:19.821Z,3444.00
2018-07-30T11:08:19.827Z,2948.00
2018-07-30T11:09:19.802Z,2876.00
2018-07-30T11:10:19.840Z,2724.00
2018-07-30T11:11:19.786Z,3424.00
2018-07-30T11:12:19.770Z,4312.00
2018-07-30T11:13:19.758Z,5176.00
2018-07-30T11:14:19.811Z,6944.00
2018-07-30T11:15:19.787Z,14536.00
2018-07-30T11:16:19.731Z,12272.00
2018-07-30T11:17:19.733Z,46304.00
2018-07-30T11:18:19.706Z,98976.00
2018-07-30T11:19:19.696Z,93248.00
2018-07-30T11:20:19.700Z,96800.00
2018-07-30T11:21:19.722Z,94240.00
2018-07-30T11:22:19.658Z,95680.00
2018-07-30T11:23:19.672Z,97952.00
2018-07-30T11:24:19.639Z,98816.00
2018-07-30T11:25:19.643Z,101792.00
2018-07-30T11:26:19.674Z,100480.00
2018-07-30T11:27:19.616Z,100544.00
2018-07-30T11:28:19.606Z,103264.00
2018-07-30T11:29:19.614Z,99712.00
2018-07-30T11:30:19.604Z,100000.00
2018-07-30T11:31:19.624Z,102720.00
2018-07-30T11:32:19.559Z,101600.00
2018-07-30T11:33:19.700Z,100928.00
2018-07-30T11:34:19.539Z,102240.00
2018-07-30T11:35:19.527Z,99968.00
2018-07-30T11:36:19.566Z,101120.00
2018-07-30T11:37:19.508Z,102912.00
2018-07-30T11:38:19.500Z,84128.00
2018-07-30T11:39:19.483Z,96032.00
2018-07-30T11:40:19.694Z,93280.00
2018-07-30T11:41:19.515Z,78400.00
2018-07-30T11:42:19.457Z,63840.00
2018-07-30T11:43:19.450Z,18944.00
2018-07-30T11:44:19.438Z,30624.00
2018-07-30T11:45:19.429Z,3528.00
2018-07-30T11:46:19.473Z,4004.00
2018-07-30T11:47:19.591Z,8156.00
2018-07-30T11:48:19.434Z,20192.00
2018-07-30T11:49:19.391Z,8512.00
2018-07-30T11:50:19.379Z,12012.00
2018-07-30T11:51:19.374Z,22336.00
2018-07-30T11:52:19.421Z,24352.00
2018-07-30T11:53:19.357Z,23264.00
2018-07-30T11:54:19.345Z,25888.00
2018-07-30T11:55:19.330Z,26336.00
2018-07-30T11:56:19.324Z,104256.00
2018-07-30T11:57:19.382Z,104992.00
2018-07-30T11:58:19.379Z,106720.00
2018-07-30T11:59:19.289Z,105024.00
2018-07-30T12:00:19.276Z,102848.00
2018-07-30T12:01:19.284Z,103616.00
2018-07-30T12:02:19.301Z,105568.00
2018-07-30T12:03:19.245Z,101632.00
2018-07-30T12:04:19.237Z,100224.00
2018-07-30T12:05:19.233Z,103616.00
2018-07-30T12:06:19.217Z,103552.00
2018-07-30T12:07:19.256Z,102784.00
2018-07-30T12:08:19.207Z,101760.00
2018-07-30T12:09:19.186Z,102272.00
2018-07-30T12:10:19.177Z,102624.00
2018-07-30T12:11:19.198Z,98592.00
2018-07-30T12:12:19.212Z,98112.00
2018-07-30T12:13:19.151Z,102272.00
2018-07-30T12:14:19.140Z,102400.00
2018-07-30T12:15:19.131Z,103456.00
2018-07-30T12:16:19.154Z,103744.00
2018-07-30T12:17:19.284Z,100736.00
2018-07-30T12:18:19.099Z,103200.00
2018-07-30T12:19:19.166Z,101888.00
2018-07-30T12:20:19.086Z,102560.00
2018-07-30T12:21:19.071Z,104480.00
2018-07-30T12:22:19.112Z,103584.00
2018-07-30T12:23:19.093Z,103424.00
2018-07-30T12:24:19.045Z,99616.00
2018-07-30T12:25:19.048Z,100256.00
2018-07-30T12:26:19.038Z,101856.00
2018-07-30T12:27:19.074Z,99488.00
2018-07-30T12:28:19.016Z,99776.00
2018-07-30T12:29:19.047Z,98336.00
2018-07-30T12:30:19.102Z,98656.00
2018-07-30T12:31:18.987Z,97984.00
2018-07-30T12:32:18.996Z,94976.00
2018-07-30T12:33:19.008Z,91904.00
2018-07-30T12:34:18.956Z,65856.00
2018-07-30T12:35:18.944Z,18560.00
2018-07-30T12:36:19.079Z,2688.00
2018-07-30T12:37:18.934Z,2432.00
2018-07-30T12:38:18.972Z,2328.00
2018-07-30T12:39:18.909Z,2276.00
2018-07-30T12:40:18.927Z,2216.00
2018-07-30T12:41:18.890Z,2228.00
2018-07-30T12:42:18.886Z,2196.00
2018-07-30T12:43:18.921Z,2132.00
2018-07-30T12:44:18.854Z,2148.00
2018-07-30T12:45:18.851Z,2152.00
2018-07-30T12:46:18.843Z,2108.00
2018-07-30T12:47:18.830Z,2128.00
2018-07-30T12:48:18.864Z,2148.00
2018-07-30T12:49:18.809Z,2104.00
2018-07-30T12:50:18.805Z,2068.00
2018-07-30T12:51:18.793Z,2008.00
2018-07-30T12:52:18.780Z,1984.00
2018-07-30T12:53:18.815Z,2028.00
2018-07-30T12:54:18.766Z,2000.00
2018-07-30T12:55:18.786Z,1944.00
2018-07-30T12:56:18.741Z,1912.00
2018-07-30T12:57:18.729Z,1928.00
2018-07-30T12:58:18.773Z,1936.00
2018-07-30T12:59:18.716Z,1976.00
2018-07-30T13:00:18.730Z,1980.00
2018-07-30T13:01:18.683Z,1936.00
2018-07-30T13:02:18.716Z,1920.00
2018-07-30T13:03:18.811Z,1948.00
2018-07-30T13:04:18.652Z,1952.00
2018-07-30T13:05:18.680Z,1888.00
2018-07-30T13:06:18.652Z,1888.00
2018-07-30T13:07:18.632Z,1916.00
2018-07-30T13:08:18.654Z,1924.00
2018-07-30T13:09:18.681Z,1948.00
2018-07-30T13:10:18.592Z,1924.00
2018-07-30T13:11:18.579Z,1952.00
2018-07-30T13:12:18.580Z,1980.00
2018-07-30T13:13:18.561Z,2032.00
2018-07-30T13:14:18.595Z,1952.00
2018-07-30T13:15:18.535Z,1968.00
2018-07-30T13:16:18.537Z,1968.00
2018-07-30T13:17:18.514Z,1928.00
2018-07-30T13:18:18.503Z,1916.00
2018-07-30T13:19:18.559Z,1904.00
2018-07-30T13:20:18.495Z,1904.00
2018-07-30T13:21:18.562Z,1936.00
2018-07-30T13:22:18.464Z,1892.00